Hicksville, Ohio
Current Conditions -  °F | °C
As of 7:15 AM on Friday 24 Oct 2014 (Local Time) from KGWB Reporting Station
Haze Haze  
Wind Chill: 36°   Ceiling: Unl
Heat Index: 36°   Visibility: 5mi
Dew Point: 34°   Wind: 0mph
Humidity: 93%   Direction: NA
Pressure: 30.1"   Gusts: NA
Location:  41.29°N, 84.76°W
Report Text: KGWB 241115Z AUTO 00000KT 5SM BR SCT070 02/01 A3010 RMK AO2
Loading
Personal Weather Stations






























Interactive Weather Map
Tropical Storm Tracking
New forecast layout! Learn more

10-Day Weather Forecast

Advertisements
Track Severe Weather on mobile